Time;durP1;ratioP1;P1;durP2;ratioP2;P2;SDS_P1;SDS_P2;PMS_P1;PMS_P2;Temp;Humidity;BMP_temperature;BMP_pressure;BME280_temperature;BME280_humidity;BME280_pressure;Samples;Min_cycle;Max_cycle;Signal;HPM_P1;HPM_P2
2022/10/09 00:01:15;;;;;;;0.10;0.10;;;10.10;99.90;;;;;;5022760;28;20509;-76
2022/10/09 00:03:43;;;;;;;0.10;0.10;;;10.10;99.90;;;;;;5038572;28;20136;-76
2022/10/09 00:06:11;;;;;;;0.10;0.10;;;10.10;99.90;;;;;;5043992;28;20061;-76
2022/10/09 00:08:39;;;;;;;0.20;0.20;;;10.10;99.90;;;;;;5028814;28;20128;-76
2022/10/09 00:11:11;;;;;;;0.10;0.10;;;10.00;99.90;;;;;;5029347;28;20402;-76
2022/10/09 00:13:37;;;;;;;0.20;0.20;;;10.10;99.90;;;;;;5030282;28;20045;-76
2022/10/09 00:16:05;;;;;;;3.50;1.10;;;10.00;99.90;;;;;;5028857;28;20038;-76
2022/10/09 00:18:31;;;;;;;0.10;0.10;;;10.20;99.90;;;;;;5013644;28;20489;-76
2022/10/09 00:20:57;;;;;;;0.10;0.10;;;10.20;99.90;;;;;;5020636;28;20041;-76
2022/10/09 00:23:23;;;;;;;0.40;0.40;;;10.20;99.90;;;;;;5032578;28;20052;-76
2022/10/09 00:25:57;;;;;;;0.00;0.00;;;10.20;99.90;;;;;;5025492;28;20051;-76
2022/10/09 00:28:24;;;;;;;0.10;0.10;;;10.30;99.90;;;;;;5026969;28;20041;-76
2022/10/09 00:30:51;;;;;;;0.10;0.10;;;10.30;99.90;;;;;;5030485;28;20041;-76
2022/10/09 00:33:17;;;;;;;0.00;0.00;;;10.20;99.90;;;;;;5024768;28;20136;-76
2022/10/09 00:35:42;;;;;;;0.10;0.10;;;10.30;99.90;;;;;;5024029;28;20128;-77
2022/10/09 00:38:09;;;;;;;0.05;0.05;;;10.30;99.90;;;;;;5024301;28;20055;-76
2022/10/09 00:40:36;;;;;;;0.10;0.10;;;10.30;99.90;;;;;;5023512;28;20052;-76
2022/10/09 00:43:02;;;;;;;0.10;0.10;;;10.30;99.90;;;;;;5018395;28;20099;-76
2022/10/09 00:45:28;;;;;;;0.00;0.00;;;10.20;99.90;;;;;;5013594;28;20137;-75
2022/10/09 00:48:01;;;;;;;0.10;0.10;;;10.10;99.90;;;;;;5018792;28;20041;-75
2022/10/09 00:50:41;;;;;;;0.10;0.10;;;10.00;99.90;;;;;;5027705;28;20046;-74
2022/10/09 00:53:09;;;;;;;0.50;0.50;;;10.00;99.90;;;;;;5014774;28;20038;-75
2022/10/09 00:55:36;;;;;;;0.10;0.10;;;10.00;99.90;;;;;;5044526;28;20054;-75
2022/10/09 00:58:03;;;;;;;0.10;0.10;;;10.00;99.90;;;;;;5031551;28;20132;-75
2022/10/09 01:00:28;;;;;;;0.85;0.85;;;9.90;99.90;;;;;;5037312;28;20464;-75
2022/10/09 01:02:54;;;;;;;0.00;0.00;;;9.90;99.90;;;;;;5014166;28;20124;-75
2022/10/09 01:05:33;;;;;;;0.10;0.10;;;9.90;99.90;;;;;;5020558;28;20137;-75
2022/10/09 01:08:15;;;;;;;0.82;0.80;;;9.80;99.90;;;;;;5037372;28;20422;-75
2022/10/09 01:10:58;;;;;;;0.45;0.45;;;9.80;99.90;;;;;;5017943;28;20421;-75
2022/10/09 01:13:41;;;;;;;0.30;0.30;;;9.70;99.90;;;;;;5028903;28;20083;-76
2022/10/09 01:16:20;;;;;;;0.10;0.10;;;9.70;99.90;;;;;;5021939;28;20108;-76
2022/10/09 01:19:04;;;;;;;0.30;0.30;;;9.70;99.90;;;;;;5027060;28;20041;-75
2022/10/09 01:21:39;;;;;;;0.10;0.10;;;9.60;99.90;;;;;;5032255;28;20098;-75
2022/10/09 01:24:20;;;;;;;0.10;0.10;;;9.60;99.90;;;;;;5020020;28;20050;-75
2022/10/09 01:27:09;;;;;;;0.10;0.10;;;9.60;99.90;;;;;;5026651;28;20111;-76
2022/10/09 01:29:41;;;;;;;0.10;0.10;;;9.50;99.90;;;;;;5024151;28;20096;-75
2022/10/09 01:32:09;;;;;;;0.10;0.10;;;9.50;99.90;;;;;;5025774;28;20045;-75
2022/10/09 01:34:37;;;;;;;0.10;0.10;;;9.50;99.90;;;;;;5030852;28;20111;-76
2022/10/09 01:37:04;;;;;;;0.10;0.10;;;9.50;99.90;;;;;;5029968;28;20137;-76
2022/10/09 01:39:31;;;;;;;0.10;0.10;;;9.50;99.90;;;;;;5036428;28;20041;-76
2022/10/09 01:41:57;;;;;;;0.10;0.10;;;9.50;99.90;;;;;;5014813;28;20437;-76
2022/10/09 01:44:25;;;;;;;0.30;0.30;;;9.50;99.90;;;;;;5039455;28;20153;-76
2022/10/09 01:46:51;;;;;;;0.00;0.00;;;9.40;99.90;;;;;;5013457;28;20052;-76
2022/10/09 01:49:43;;;;;;;0.63;0.63;;;9.50;99.90;;;;;;5032624;28;20038;-76
2022/10/09 01:52:18;;;;;;;0.00;0.00;;;9.50;99.90;;;;;;5025312;28;20049;-76
2022/10/09 01:55:03;;;;;;;0.10;0.10;;;9.40;99.90;;;;;;5025398;28;20038;-76
2022/10/09 01:57:49;;;;;;;0.10;0.10;;;9.40;99.90;;;;;;5031958;28;20049;-77
2022/10/09 02:00:15;;;;;;;0.10;0.10;;;9.40;99.90;;;;;;5022257;28;20038;-75
2022/10/09 02:02:43;;;;;;;0.10;0.10;;;9.40;99.90;;;;;;5022622;28;20087;-74
2022/10/09 02:05:12;;;;;;;0.10;0.10;;;9.40;99.90;;;;;;5038485;28;20064;-74
2022/10/09 02:07:38;;;;;;;0.30;0.30;;;9.40;99.90;;;;;;5043856;28;20050;-74
2022/10/09 02:10:05;;;;;;;0.10;0.10;;;9.40;99.90;;;;;;5026606;28;20050;-74
2022/10/09 02:12:36;;;;;;;0.10;0.10;;;9.30;99.90;;;;;;5029635;28;20046;-74
2022/10/09 02:15:02;;;;;;;0.10;0.10;;;9.30;99.90;;;;;;5017090;28;20402;-74
2022/10/09 02:17:33;;;;;;;0.10;0.10;;;9.40;99.90;;;;;;5013326;28;20037;-74
2022/10/09 02:20:07;;;;;;;0.10;0.10;;;9.40;99.90;;;;;;5023446;28;20056;-73
2022/10/09 02:22:34;;;;;;;;;;;9.30;99.90;;;;;;5023902;28;20046;-74
2022/10/09 02:25:02;;;;;;;0.10;0.10;;;9.40;99.90;;;;;;5037030;28;19971;-74
2022/10/09 02:27:29;;;;;;;0.38;0.38;;;9.30;99.90;;;;;;5029311;28;20095;-73
2022/10/09 02:29:55;;;;;;;0.10;0.10;;;9.30;99.90;;;;;;5017278;28;20052;-74
2022/10/09 02:32:22;;;;;;;0.10;0.10;;;9.30;99.90;;;;;;5017694;28;20121;-74
2022/10/09 02:34:47;;;;;;;0.10;0.10;;;9.20;99.90;;;;;;5023634;28;20097;-75
2022/10/09 02:37:13;;;;;;;0.10;0.10;;;9.20;99.90;;;;;;5023041;28;20033;-74
2022/10/09 02:39:39;;;;;;;0.10;0.10;;;9.20;99.90;;;;;;5033171;28;20553;-74
2022/10/09 02:42:05;;;;;;;0.82;0.82;;;9.20;99.90;;;;;;5018925;28;20045;-74
2022/10/09 02:44:30;;;;;;;0.10;0.10;;;9.20;99.90;;;;;;5018016;28;20408;-74
2022/10/09 02:46:56;;;;;;;0.20;0.20;;;9.20;99.90;;;;;;5047457;28;20056;-74
2022/10/09 02:49:21;;;;;;;0.10;0.10;;;9.30;99.90;;;;;;5035766;28;20049;-75
2022/10/09 02:51:47;;;;;;;0.10;0.10;;;9.30;99.90;;;;;;5015944;28;20489;-75
2022/10/09 02:54:13;;;;;;;0.10;0.10;;;9.30;99.90;;;;;;5036063;28;20401;-75
2022/10/09 02:56:38;;;;;;;0.52;0.52;;;9.20;99.90;;;;;;5021892;28;20112;-76
2022/10/09 02:59:04;;;;;;;0.03;0.03;;;9.20;99.90;;;;;;5029822;28;20045;-75
2022/10/09 03:01:29;;;;;;;0.10;0.10;;;9.20;99.90;;;;;;5026542;28;20543;-76
2022/10/09 03:03:55;;;;;;;0.10;0.10;;;9.20;99.90;;;;;;5020006;28;20046;-76
2022/10/09 03:06:23;;;;;;;0.10;0.10;;;9.20;99.90;;;;;;5025873;28;20052;-76
2022/10/09 03:08:50;;;;;;;0.10;0.10;;;9.20;99.90;;;;;;5029416;28;20157;-76
2022/10/09 03:11:18;;;;;;;0.10;0.10;;;9.20;99.90;;;;;;5025783;28;20061;-75
2022/10/09 03:13:44;;;;;;;0.10;0.10;;;9.20;99.90;;;;;;5023429;28;20053;-75
2022/10/09 03:16:16;;;;;;;0.10;0.10;;;9.30;99.90;;;;;;5022098;28;20033;-74
2022/10/09 03:18:42;;;;;;;0.10;0.10;;;9.20;99.90;;;;;;5038514;28;20124;-74
2022/10/09 03:21:28;;;;;;;0.10;0.10;;;9.20;99.90;;;;;;5023448;28;20064;-74
2022/10/09 03:23:54;;;;;;;0.08;0.08;;;9.30;99.90;;;;;;5030848;28;20127;-74
2022/10/09 03:26:22;;;;;;;0.20;0.20;;;9.30;99.90;;;;;;5039623;28;20049;-74
2022/10/09 03:28:50;;;;;;;0.10;0.10;;;9.20;99.90;;;;;;5014111;28;20374;-74
2022/10/09 03:31:17;;;;;;;0.10;0.10;;;9.20;99.90;;;;;;5015900;28;20041;-74
2022/10/09 03:33:43;;;;;;;0.08;0.08;;;9.20;99.90;;;;;;5036051;28;20485;-74
2022/10/09 03:36:09;;;;;;;0.15;0.15;;;9.20;99.90;;;;;;5019743;28;20056;-73
2022/10/09 03:38:35;;;;;;;0.10;0.10;;;9.20;99.90;;;;;;5021785;28;20494;-74
2022/10/09 03:41:03;;;;;;;0.10;0.10;;;9.20;99.90;;;;;;5026976;28;20052;-73
2022/10/09 03:43:28;;;;;;;0.10;0.10;;;9.30;99.90;;;;;;5020976;28;20084;-74
2022/10/09 03:45:54;;;;;;;0.10;0.10;;;9.30;99.90;;;;;;5010469;28;20037;-73
2022/10/09 03:48:21;;;;;;;0.55;0.52;;;9.30;99.90;;;;;;5040786;28;20451;-73
2022/10/09 03:50:47;;;;;;;0.10;0.10;;;9.20;99.90;;;;;;5037044;28;20041;-74
2022/10/09 03:53:13;;;;;;;0.10;0.10;;;9.20;99.90;;;;;;5011094;28;20041;-75
2022/10/09 03:55:39;;;;;;;0.20;0.20;;;9.20;99.90;;;;;;5038958;28;20057;-75
2022/10/09 03:58:05;;;;;;;0.10;0.10;;;9.20;99.90;;;;;;5012018;28;20038;-75
2022/10/09 04:00:31;;;;;;;0.00;0.00;;;9.20;99.90;;;;;;5028844;28;20045;-75
2022/10/09 04:02:57;;;;;;;0.10;0.10;;;9.10;99.90;;;;;;5031435;28;20068;-76
2022/10/09 04:05:22;;;;;;;0.10;0.10;;;9.10;99.90;;;;;;5027642;28;20052;-76
2022/10/09 04:07:48;;;;;;;0.00;0.00;;;9.10;99.90;;;;;;5022697;28;20049;-76
2022/10/09 04:10:14;;;;;;;0.28;0.28;;;9.10;99.90;;;;;;5026011;28;20799;-75
2022/10/09 04:12:40;;;;;;;0.00;0.00;;;9.10;99.90;;;;;;5045156;28;20510;-75
2022/10/09 04:15:06;;;;;;;0.10;0.10;;;9.10;99.90;;;;;;5030635;28;20096;-74
2022/10/09 04:17:31;;;;;;;0.10;0.10;;;9.00;99.90;;;;;;5032676;28;20045;-75
2022/10/09 04:19:57;;;;;;;0.05;0.05;;;9.10;99.90;;;;;;5017151;28;20386;-75
2022/10/09 04:22:23;;;;;;;0.10;0.10;;;9.00;99.90;;;;;;5037172;28;20056;-75
2022/10/09 04:24:48;;;;;;;0.13;0.13;;;9.00;99.90;;;;;;5026727;28;20049;-75
2022/10/09 04:27:14;;;;;;;0.35;0.30;;;9.00;99.90;;;;;;5013857;28;20058;-75
2022/10/09 04:29:39;;;;;;;0.45;0.30;;;9.00;99.90;;;;;;5024490;28;20394;-75
2022/10/09 04:32:05;;;;;;;0.10;0.10;;;8.90;99.90;;;;;;5034226;28;20053;-75
2022/10/09 04:34:31;;;;;;;0.10;0.10;;;9.00;99.90;;;;;;5036933;28;20042;-76
2022/10/09 04:36:57;;;;;;;0.10;0.10;;;9.00;99.90;;;;;;5032245;28;20038;-77
2022/10/09 04:39:22;;;;;;;7.57;2.30;;;9.00;99.90;;;;;;5021231;28;20044;-77
2022/10/09 04:41:48;;;;;;;0.10;0.10;;;9.00;99.90;;;;;;5031347;28;20041;-77
2022/10/09 04:44:13;;;;;;;0.00;0.00;;;9.00;99.90;;;;;;5030337;28;20041;-75
2022/10/09 04:46:39;;;;;;;0.10;0.10;;;9.00;99.90;;;;;;5019177;28;20096;-75
2022/10/09 04:49:04;;;;;;;0.10;0.10;;;9.00;99.90;;;;;;5024596;28;20085;-75
2022/10/09 04:51:30;;;;;;;0.00;0.00;;;9.00;99.90;;;;;;5022066;28;20495;-76
2022/10/09 04:53:56;;;;;;;0.10;0.10;;;9.00;99.90;;;;;;5043997;28;20049;-76
2022/10/09 04:56:22;;;;;;;0.20;0.20;;;9.00;99.90;;;;;;5025634;28;20436;-75
2022/10/09 04:58:49;;;;;;;0.10;0.10;;;8.90;99.90;;;;;;5031112;28;20044;-76
2022/10/09 05:01:20;;;;;;;0.00;0.00;;;8.90;99.90;;;;;;5032348;28;20396;-76
2022/10/09 05:03:47;;;;;;;0.00;0.00;;;8.90;99.90;;;;;;5039314;28;20064;-76
2022/10/09 05:06:14;;;;;;;0.10;0.10;;;8.90;99.90;;;;;;5037006;28;20041;-75
2022/10/09 05:08:41;;;;;;;0.03;0.03;;;8.80;99.90;;;;;;5041637;28;20110;-75
2022/10/09 05:11:09;;;;;;;0.00;0.00;;;8.70;99.90;;;;;;5053305;28;20056;-75
2022/10/09 05:13:38;;;;;;;0.15;0.15;;;8.70;99.90;;;;;;5044538;28;20485;-74
2022/10/09 05:16:06;;;;;;;0.10;0.10;;;8.60;99.90;;;;;;5033619;28;20050;-74
2022/10/09 05:18:33;;;;;;;0.25;0.25;;;8.60;99.90;;;;;;5035702;28;20045;-74
2022/10/09 05:21:01;;;;;;;0.10;0.10;;;8.60;99.90;;;;;;5053353;28;20049;-73
2022/10/09 05:23:27;;;;;;;0.10;0.10;;;8.60;99.90;;;;;;5046435;28;20083;-74
2022/10/09 05:26:00;;;;;;;0.10;0.10;;;8.50;99.90;;;;;;5024546;28;20073;-74
2022/10/09 05:28:26;;;;;;;0.10;0.10;;;8.50;99.90;;;;;;5045009;28;20429;-74
2022/10/09 05:30:52;;;;;;;0.25;0.25;;;8.50;99.90;;;;;;5043559;28;20105;-74
2022/10/09 05:33:18;;;;;;;0.10;0.10;;;8.60;99.90;;;;;;5051845;28;20077;-74
2022/10/09 05:35:55;;;;;;;0.20;0.20;;;8.60;99.90;;;;;;5034878;28;20054;-74
2022/10/09 05:38:21;;;;;;;0.10;0.10;;;8.50;99.90;;;;;;5017310;28;20393;-74
2022/10/09 05:40:54;;;;;;;0.10;0.10;;;8.60;99.90;;;;;;5030849;28;20041;-74
2022/10/09 05:43:23;;;;;;;0.10;0.10;;;8.50;99.90;;;;;;5012937;28;20061;-74
2022/10/09 05:45:48;;;;;;;0.95;0.95;;;8.50;99.90;;;;;;5019834;28;20306;-74
2022/10/09 05:48:14;;;;;;;0.10;0.10;;;8.50;99.90;;;;;;5043495;28;20045;-74
2022/10/09 05:50:40;;;;;;;0.82;0.77;;;8.50;99.90;;;;;;5015845;28;20401;-75
2022/10/09 05:53:05;;;;;;;0.20;0.20;;;8.50;99.90;;;;;;5031520;28;20045;-74
2022/10/09 05:55:31;;;;;;;2.03;0.85;;;8.50;99.90;;;;;;5042185;28;20056;-75
2022/10/09 05:57:56;;;;;;;0.10;0.10;;;8.50;99.90;;;;;;5045101;28;20083;-75
2022/10/09 06:00:22;;;;;;;0.10;0.10;;;8.50;99.90;;;;;;5022952;28;20045;-74
2022/10/09 06:02:47;;;;;;;0.10;0.10;;;8.50;99.90;;;;;;5029124;28;20046;-76
2022/10/09 06:05:13;;;;;;;0.20;0.20;;;8.50;99.90;;;;;;5030446;28;20544;-76
2022/10/09 06:07:39;;;;;;;0.63;0.55;;;8.60;99.90;;;;;;5046256;28;20523;-74
2022/10/09 06:10:04;;;;;;;0.38;0.38;;;8.60;99.90;;;;;;5015283;28;20144;-75
2022/10/09 06:12:30;;;;;;;0.25;0.25;;;8.70;99.90;;;;;;5026681;28;20459;-75
2022/10/09 06:14:56;;;;;;;0.10;0.10;;;8.60;99.90;;;;;;5041610;28;20128;-75
2022/10/09 06:17:21;;;;;;;0.13;0.13;;;8.60;99.90;;;;;;5031595;28;20499;-75
2022/10/09 06:19:47;;;;;;;0.32;0.32;;;8.60;99.90;;;;;;5029628;28;20457;-76
2022/10/09 06:22:12;;;;;;;1.67;1.20;;;8.70;99.90;;;;;;5037281;28;20159;-75
2022/10/09 06:24:38;;;;;;;0.13;0.13;;;8.70;99.90;;;;;;5029830;28;20045;-75
2022/10/09 06:27:03;;;;;;;0.10;0.10;;;8.70;99.90;;;;;;5026728;28;20543;-75
2022/10/09 06:29:29;;;;;;;0.30;0.30;;;8.80;99.90;;;;;;5022964;28;20084;-75
2022/10/09 06:31:55;;;;;;;0.10;0.10;;;8.80;99.90;;;;;;5025578;28;20033;-75
2022/10/09 06:34:21;;;;;;;0.10;0.10;;;8.90;99.90;;;;;;5031754;28;20141;-75
2022/10/09 06:36:47;;;;;;;0.22;0.22;;;8.90;99.90;;;;;;5014347;28;20691;-76
2022/10/09 06:39:12;;;;;;;0.10;0.10;;;8.90;99.90;;;;;;5031801;28;20048;-75
2022/10/09 06:41:38;;;;;;;0.28;0.28;;;8.90;99.90;;;;;;5029100;28;20107;-76
2022/10/09 06:44:05;;;;;;;0.10;0.10;;;9.00;99.90;;;;;;5016972;28;20132;-75
2022/10/09 06:46:37;;;;;;;0.82;0.80;;;9.10;99.90;;;;;;5025293;28;20046;-76
2022/10/09 06:49:04;;;;;;;0.10;0.10;;;9.10;99.90;;;;;;5049053;28;20485;-75
2022/10/09 06:51:30;;;;;;;0.22;0.22;;;9.10;99.90;;;;;;5020291;28;20050;-75
2022/10/09 06:53:58;;;;;;;0.10;0.10;;;9.10;99.90;;;;;;5042451;28;20038;-75
2022/10/09 06:56:27;;;;;;;0.35;0.35;;;9.20;99.90;;;;;;5024750;28;20153;-75
2022/10/09 06:58:52;;;;;;;0.30;0.30;;;9.30;99.90;;;;;;5025029;28;20045;-75
2022/10/09 07:01:20;;;;;;;0.32;0.30;;;9.30;99.90;;;;;;5021005;28;20454;-75
2022/10/09 07:03:51;;;;;;;0.40;0.40;;;9.30;99.90;;;;;;5017592;28;20046;-74
2022/10/09 07:06:19;;;;;;;0.20;0.20;;;9.40;99.90;;;;;;5018061;28;20122;-73
2022/10/09 07:08:48;;;;;;;0.90;0.85;;;9.40;99.90;;;;;;5025210;28;20041;-75
2022/10/09 07:11:14;;;;;;;0.20;0.20;;;9.30;99.90;;;;;;5032255;28;20045;-75
2022/10/09 07:13:42;;;;;;;0.75;0.47;;;9.40;99.90;;;;;;5041045;28;20045;-75
2022/10/09 07:16:09;;;;;;;0.20;0.20;;;9.40;99.90;;;;;;5009362;28;20045;-75
2022/10/09 07:18:35;;;;;;;0.10;0.10;;;9.50;99.90;;;;;;5012937;28;20045;-75
2022/10/09 07:21:06;;;;;;;1.08;0.43;;;9.50;99.90;;;;;;5016045;28;20065;-74
2022/10/09 07:23:32;;;;;;;0.20;0.20;;;9.50;99.90;;;;;;5028564;28;20124;-75
2022/10/09 07:25:58;;;;;;;0.10;0.10;;;9.60;99.90;;;;;;5031051;28;20041;-76
2022/10/09 07:28:25;;;;;;;0.10;0.10;;;9.60;99.90;;;;;;5032066;28;20048;-76
2022/10/09 07:30:51;;;;;;;0.10;0.10;;;9.70;99.90;;;;;;5034859;28;20060;-76
2022/10/09 07:33:17;;;;;;;0.10;0.10;;;9.80;99.90;;;;;;5024912;28;20049;-76
2022/10/09 07:35:43;;;;;;;0.10;0.10;;;9.80;99.90;;;;;;5028319;28;20488;-75
2022/10/09 07:38:08;;;;;;;0.63;0.50;;;9.90;99.90;;;;;;5026463;28;20049;-75
2022/10/09 07:40:34;;;;;;;0.10;0.10;;;10.00;99.90;;;;;;5019203;28;20045;-75
2022/10/09 07:43:00;;;;;;;0.17;0.17;;;10.00;99.90;;;;;;5023238;28;20474;-74
2022/10/09 07:45:26;;;;;;;1.20;1.02;;;10.10;99.90;;;;;;5020661;28;20076;-75
2022/10/09 07:47:52;;;;;;;0.00;0.00;;;10.10;99.90;;;;;;5024132;28;20044;-76
2022/10/09 07:50:18;;;;;;;0.10;0.10;;;10.20;99.90;;;;;;5016549;28;20058;-76
2022/10/09 07:52:43;;;;;;;0.10;0.10;;;10.20;99.90;;;;;;5020076;28;20032;-76
2022/10/09 07:55:09;;;;;;;0.10;0.10;;;10.30;99.90;;;;;;5033327;28;20054;-75
2022/10/09 07:57:34;;;;;;;0.10;0.10;;;10.40;99.90;;;;;;5031034;28;20045;-75
2022/10/09 08:00:00;;;;;;;0.43;0.43;;;10.40;99.90;;;;;;5029845;28;20125;-76
2022/10/09 08:02:25;;;;;;;0.05;0.05;;;10.50;99.90;;;;;;5021401;28;20129;-76
2022/10/09 08:04:51;;;;;;;0.00;0.00;;;10.50;99.90;;;;;;5043719;28;20081;-75
2022/10/09 08:07:16;;;;;;;0.70;0.70;;;10.60;99.90;;;;;;5032995;28;20049;-78
2022/10/09 08:09:42;;;;;;;0.00;0.00;;;10.60;99.90;;;;;;5029814;28;20081;-76
2022/10/09 08:12:07;;;;;;;0.10;0.10;;;10.70;99.90;;;;;;5030268;28;20077;-76
2022/10/09 08:14:33;;;;;;;0.10;0.10;;;10.70;99.90;;;;;;5023912;28;20065;-77
2022/10/09 08:16:59;;;;;;;0.10;0.10;;;10.80;99.90;;;;;;5030067;28;20132;-76
2022/10/09 08:19:24;;;;;;;0.20;0.20;;;10.80;99.90;;;;;;5021718;28;20033;-75
2022/10/09 08:21:50;;;;;;;0.47;0.47;;;10.90;99.90;;;;;;5024426;28;20072;-75
2022/10/09 08:24:16;;;;;;;0.38;0.38;;;10.90;99.90;;;;;;5025314;28;20048;-75
2022/10/09 08:26:43;;;;;;;0.57;0.57;;;11.10;99.90;;;;;;5026732;28;20057;-75
2022/10/09 08:29:12;;;;;;;0.38;0.38;;;11.10;99.90;;;;;;5021084;28;20048;-78
2022/10/09 08:31:38;;;;;;;0.10;0.10;;;11.10;99.90;;;;;;5034399;28;20447;-77
2022/10/09 08:34:04;;;;;;;0.10;0.10;;;11.20;99.90;;;;;;5023450;28;20116;-79
2022/10/09 08:36:30;;;;;;;0.20;0.20;;;11.30;99.90;;;;;;5029643;28;20081;-78
2022/10/09 08:38:56;;;;;;;0.10;0.10;;;11.30;99.90;;;;;;5047630;28;20110;-79
2022/10/09 08:41:41;;;;;;;0.20;0.20;;;11.30;99.90;;;;;;5030672;28;20948;-78
2022/10/09 08:44:24;;;;;;;0.00;0.00;;;11.40;99.90;;;;;;5025719;28;20052;-79
2022/10/09 08:47:12;;;;;;;0.10;0.10;;;11.50;99.90;;;;;;5040717;28;20049;-77
2022/10/09 08:49:47;;;;;;;0.00;0.00;;;11.50;99.90;;;;;;5024628;28;20064;-78
2022/10/09 08:52:34;;;;;;;0.10;0.10;;;11.50;99.90;;;;;;5024662;28;20144;-77
2022/10/09 08:55:24;;;;;;;0.77;0.63;;;11.60;99.90;;;;;;5023962;28;20049;-78
2022/10/09 08:57:52;;;;;;;0.00;0.00;;;11.70;99.90;;;;;;5024434;28;20050;-77
2022/10/09 09:00:20;;;;;;;0.00;0.00;;;11.70;99.90;;;;;;5031247;28;20045;-77
2022/10/09 09:03:11;;;;;;;0.03;0.03;;;11.70;99.90;;;;;;5024413;28;20041;-75
2022/10/09 09:06:22;;;;;;;0.03;0.03;;;11.80;99.90;;;;;;5026659;28;20555;-76
2022/10/09 09:09:00;;;;;;;0.13;0.13;;;11.90;99.90;;;;;;5045247;28;20049;-76
2022/10/09 09:11:46;;;;;;;0.10;0.10;;;12.00;99.90;;;;;;5034176;28;20041;-76
2022/10/09 09:14:31;;;;;;;0.10;0.10;;;12.00;99.90;;;;;;5037450;28;20505;-78
2022/10/09 09:17:05;;;;;;;0.43;0.30;;;12.50;99.90;;;;;;5030159;28;20056;-76
2022/10/09 09:19:30;;;;;;;;;;;13.40;99.90;;;;;;5033739;28;20067;-76
2022/10/09 09:21:57;;;;;;;0.10;0.10;;;14.10;99.90;;;;;;5020503;28;20369;-76
2022/10/09 09:24:32;;;;;;;0.03;0.03;;;14.90;99.90;;;;;;5030571;28;20144;-76
2022/10/09 09:27:02;;;;;;;0.10;0.10;;;15.60;99.90;;;;;;5052759;28;20059;-76
2022/10/09 09:29:33;;;;;;;0.08;0.08;;;16.20;99.90;;;;;;5044968;28;20120;-75
2022/10/09 09:32:00;;;;;;;0.20;0.20;;;16.70;99.90;;;;;;5027661;28;20057;-75
2022/10/09 09:34:37;;;;;;;0.10;0.10;;;16.90;99.90;;;;;;5037637;28;20072;-75
2022/10/09 09:37:03;;;;;;;0.00;0.00;;;17.20;99.90;;;;;;5029970;28;20080;-75
2022/10/09 09:39:32;;;;;;;0.40;0.40;;;17.40;99.90;;;;;;5023112;28;20086;-75
2022/10/09 09:42:20;;;;;;;0.10;0.10;;;17.50;99.90;;;;;;5021625;28;20046;-75
2022/10/09 09:45:07;;;;;;;0.05;0.05;;;17.50;99.90;;;;;;5029152;28;20524;-75
2022/10/09 09:47:42;;;;;;;0.00;0.00;;;17.70;99.90;;;;;;5025803;28;20038;-75
2022/10/09 09:50:07;;;;;;;0.00;0.00;;;17.40;99.90;;;;;;5017297;28;20057;-74
2022/10/09 09:52:40;;;;;;;0.32;0.32;;;17.20;99.90;;;;;;5017173;28;20112;-75
2022/10/09 09:55:06;;;;;;;0.10;0.10;;;17.10;99.90;;;;;;5024821;28;20598;-74
2022/10/09 09:57:36;;;;;;;0.05;0.05;;;17.10;99.90;;;;;;5021420;28;20046;-75
2022/10/09 10:00:22;;;;;;;0.20;0.20;;;16.90;99.90;;;;;;5024460;28;20389;-75
2022/10/09 10:02:48;;;;;;;19.27;0.85;;;16.80;99.90;;;;;;5027654;28;20123;-74
2022/10/09 10:05:26;;;;;;;0.40;0.40;;;16.70;99.90;;;;;;5039233;28;20095;-76
2022/10/09 10:07:52;;;;;;;2.17;0.95;;;16.70;99.90;;;;;;5030281;28;20068;-76
2022/10/09 10:10:23;;;;;;;0.10;0.10;;;16.40;99.90;;;;;;5031414;28;20042;-75
2022/10/09 10:12:56;;;;;;;2.17;0.95;;;16.30;99.90;;;;;;5023261;28;20061;-75
2022/10/09 10:15:21;;;;;;;1.70;1.60;;;16.00;99.90;;;;;;5034444;28;20183;-75
2022/10/09 10:17:53;;;;;;;0.05;0.05;;;15.70;99.90;;;;;;5020654;28;20116;-72
2022/10/09 10:20:19;;;;;;;1.85;0.63;;;15.70;99.90;;;;;;5026524;28;20785;-73
2022/10/09 10:22:54;;;;;;;0.10;0.10;;;15.60;99.90;;;;;;5028330;28;20045;-73
2022/10/09 10:25:24;;;;;;;0.20;0.20;;;15.50;99.90;;;;;;5025159;28;20080;-73
2022/10/09 10:27:54;;;;;;;8.00;1.73;;;15.50;99.90;;;;;;5029401;28;20053;-74
2022/10/09 10:30:20;;;;;;;0.40;0.40;;;15.40;99.90;;;;;;5030562;28;20131;-75
2022/10/09 10:32:57;;;;;;;17.65;0.65;;;15.40;99.90;;;;;;5030716;28;20128;-76
2022/10/09 10:35:28;;;;;;;0.10;0.10;;;15.40;99.90;;;;;;5025405;28;20781;-75
2022/10/09 10:38:00;;;;;;;13.52;0.68;;;15.60;99.90;;;;;;5030808;28;20047;-75
2022/10/09 10:40:36;;;;;;;0.10;0.10;;;15.60;99.90;;;;;;5028607;28;20073;-75
2022/10/09 10:43:12;;;;;;;0.00;0.00;;;15.60;99.90;;;;;;5026965;28;20091;-75
2022/10/09 10:45:51;;;;;;;0.40;0.40;;;15.60;99.90;;;;;;5030080;28;20040;-75
2022/10/09 10:48:32;;;;;;;0.30;0.30;;;15.70;99.90;;;;;;5027033;28;20069;-75
2022/10/09 10:51:28;;;;;;;0.05;0.05;;;15.70;99.90;;;;;;5034481;28;20045;-75
2022/10/09 10:54:05;;;;;;;0.00;0.00;;;15.70;99.90;;;;;;5025405;28;20050;-75
2022/10/09 10:57:00;;;;;;;0.10;0.10;;;15.80;99.90;;;;;;5025816;28;20185;-72
2022/10/09 10:59:34;;;;;;;0.10;0.10;;;15.90;99.90;;;;;;5022144;28;20053;-75
2022/10/09 11:02:09;;;;;;;0.10;0.10;;;15.90;99.90;;;;;;5040160;28;20049;-76
2022/10/09 11:04:35;;;;;;;0.10;0.10;;;15.90;99.90;;;;;;5023603;28;20060;-74
2022/10/09 11:07:03;;;;;;;0.10;0.10;;;16.10;99.90;;;;;;5019880;28;20504;-73
2022/10/09 11:09:59;;;;;;;0.10;0.10;;;16.10;99.90;;;;;;5019634;28;20555;-75
2022/10/09 11:12:59;;;;;;;0.00;0.00;;;16.30;99.90;;;;;;5035365;28;20505;-74
2022/10/09 11:15:36;;;;;;;0.63;0.63;;;16.50;99.90;;;;;;5027370;28;20049;-75
2022/10/09 11:18:02;;;;;;;0.08;0.08;;;16.80;99.90;;;;;;5017037;28;20160;-75
2022/10/09 11:20:36;;;;;;;0.10;0.10;;;17.00;99.90;;;;;;5036578;28;20083;-75
2022/10/09 11:23:14;;;;;;;0.22;0.22;;;17.20;99.90;;;;;;5038398;28;20087;-76
2022/10/09 11:26:08;;;;;;;0.00;0.00;;;17.40;99.90;;;;;;5030363;28;20044;-74
2022/10/09 11:28:41;;;;;;;;;;;17.70;99.90;;;;;;5027426;28;20069;-74
2022/10/09 11:31:21;;;;;;;0.10;0.10;;;17.90;99.90;;;;;;5018976;28;20319;-78
2022/10/09 11:33:55;;;;;;;0.05;0.05;;;18.20;99.90;;;;;;5019268;28;20046;-75
2022/10/09 11:36:24;;;;;;;0.00;0.00;;;18.50;99.90;;;;;;5031017;28;20086;-74
2022/10/09 11:39:02;;;;;;;0.10;0.10;;;18.70;99.90;;;;;;5022937;28;20049;-75
2022/10/09 11:41:29;;;;;;;0.10;0.10;;;18.90;99.90;;;;;;5012973;28;20057;-74
2022/10/09 11:43:58;;;;;;;0.00;0.00;;;18.90;99.90;;;;;;5021436;28;20164;-75
2022/10/09 11:46:33;;;;;;;0.32;0.32;;;19.00;99.90;;;;;;5030087;28;20059;-75
2022/10/09 11:49:04;;;;;;;0.00;0.00;;;19.10;99.90;;;;;;5020352;28;20053;-74
2022/10/09 11:51:55;;;;;;;0.10;0.10;;;19.30;99.90;;;;;;5022798;28;20100;-74
2022/10/09 11:54:23;;;;;;;0.00;0.00;;;19.20;99.90;;;;;;5024054;28;20122;-74
2022/10/09 11:56:53;;;;;;;0.08;0.08;;;19.50;99.90;;;;;;5026037;28;20037;-74
2022/10/09 11:59:29;;;;;;;0.00;0.00;;;19.50;99.90;;;;;;5030880;28;20049;-75
2022/10/09 12:02:00;;;;;;;0.00;0.00;;;19.60;99.90;;;;;;5029647;28;20073;-74
2022/10/09 12:04:33;;;;;;;0.10;0.10;;;19.50;99.90;;;;;;5042325;28;20058;-74
2022/10/09 12:07:01;;;;;;;0.40;0.40;;;19.50;99.90;;;;;;5035312;28;20037;-74
2022/10/09 12:09:40;;;;;;;0.57;0.55;;;19.50;99.90;;;;;;5033437;28;20039;-75
2022/10/09 12:12:17;;;;;;;0.00;0.00;;;19.70;99.90;;;;;;5022501;28;20038;-75
2022/10/09 12:14:45;;;;;;;1.35;0.45;;;20.10;99.90;;;;;;5013725;28;20493;-75
2022/10/09 12:17:34;;;;;;;0.13;0.13;;;20.30;99.90;;;;;;5035033;28;20063;-75
2022/10/09 12:20:15;;;;;;;5.28;0.30;;;20.30;99.30;;;;;;5028279;28;20053;-74
2022/10/09 12:22:44;;;;;;;0.10;0.10;;;20.60;99.90;;;;;;5026980;28;20042;-75
2022/10/09 12:25:29;;;;;;;2.13;0.57;;;20.60;99.60;;;;;;5024188;28;20053;-74
2022/10/09 12:27:57;;;;;;;0.00;0.00;;;20.70;99.90;;;;;;5037404;28;20052;-75
2022/10/09 12:30:30;;;;;;;0.00;0.00;;;20.60;99.60;;;;;;5022590;28;20042;-75
2022/10/09 12:33:16;;;;;;;0.00;0.00;;;20.80;99.00;;;;;;5027201;28;20128;-75
2022/10/09 12:35:45;;;;;;;0.00;0.00;;;20.90;99.90;;;;;;5026291;28;20041;-76
2022/10/09 12:38:30;;;;;;;0.00;0.00;;;21.10;99.10;;;;;;5021340;28;20052;-74
2022/10/09 12:41:00;;;;;;;0.00;0.00;;;20.80;99.40;;;;;;5030429;28;20053;-75
2022/10/09 12:43:26;;;;;;;2.65;1.17;;;21.00;99.10;;;;;;5041057;28;20048;-75
2022/10/09 12:45:52;;;;;;;0.00;0.00;;;21.20;99.20;;;;;;5032628;28;20041;-75
2022/10/09 12:48:26;;;;;;;0.00;0.00;;;21.30;98.70;;;;;;5026702;28;20049;-76
2022/10/09 12:50:53;;;;;;;0.03;0.03;;;21.20;97.00;;;;;;5025310;28;20045;-77
2022/10/09 12:53:22;;;;;;;3.42;0.55;;;21.10;98.10;;;;;;5028646;28;20580;-76
2022/10/09 12:55:58;;;;;;;0.05;0.05;;;21.60;98.80;;;;;;5026973;28;20056;-75
2022/10/09 12:58:35;;;;;;;1.25;0.70;;;21.50;97.00;;;;;;5030249;28;20049;-75
2022/10/09 13:01:05;;;;;;;1.15;1.13;;;21.50;97.10;;;;;;5026565;28;20092;-75
2022/10/09 13:03:40;;;;;;;0.00;0.00;;;21.40;96.90;;;;;;5033211;28;20073;-75
2022/10/09 13:06:17;;;;;;;0.00;0.00;;;21.30;98.00;;;;;;5041778;28;20053;-74
2022/10/09 13:08:44;;;;;;;0.10;0.10;;;21.60;97.20;;;;;;5038413;28;20040;-75